createdAt,value
2018-07-26T00:01:49.072Z,20.00
2018-07-26T00:04:17.508Z,19.90
2018-07-26T00:06:45.968Z,19.80
2018-07-26T00:09:14.411Z,19.80
2018-07-26T00:11:42.880Z,19.80
2018-07-26T00:14:11.304Z,19.90
2018-07-26T00:16:39.760Z,19.90
2018-07-26T00:19:08.196Z,20.00
2018-07-26T00:21:36.711Z,20.00
2018-07-26T00:24:05.113Z,20.00
2018-07-26T00:26:33.555Z,20.00
2018-07-26T00:29:01.985Z,20.00
2018-07-26T00:31:30.416Z,19.90
2018-07-26T00:33:58.853Z,19.70
2018-07-26T00:36:27.271Z,19.50
2018-07-26T00:38:55.722Z,19.40
2018-07-26T00:41:24.208Z,19.30
2018-07-26T00:43:52.669Z,19.30
2018-07-26T00:46:21.083Z,19.20
2018-07-26T00:48:49.787Z,19.20
2018-07-26T00:51:18.199Z,19.20
2018-07-26T00:53:46.644Z,19.30
2018-07-26T00:56:15.073Z,19.40
2018-07-26T00:58:44.286Z,19.50
2018-07-26T01:01:12.711Z,19.50
2018-07-26T01:03:41.171Z,19.60
2018-07-26T01:06:09.604Z,19.60
2018-07-26T01:08:38.054Z,19.60
2018-07-26T01:11:06.535Z,19.60
2018-07-26T01:13:35.020Z,19.60
2018-07-26T01:16:03.505Z,19.40
2018-07-26T01:18:31.992Z,19.40
2018-07-26T01:21:00.461Z,19.30
2018-07-26T01:23:28.900Z,19.10
2018-07-26T01:25:57.352Z,19.10
2018-07-26T01:28:25.840Z,19.00
2018-07-26T01:30:54.323Z,18.90
2018-07-26T01:33:22.749Z,18.90
2018-07-26T01:35:51.199Z,18.90
2018-07-26T01:38:19.659Z,18.90
2018-07-26T01:40:48.097Z,18.90
2018-07-26T01:43:57.115Z,18.90
2018-07-26T01:46:26.514Z,18.90
2018-07-26T01:48:54.943Z,19.00
2018-07-26T01:51:23.387Z,19.00
2018-07-26T01:53:51.823Z,19.00
2018-07-26T01:56:20.308Z,19.10
2018-07-26T01:58:48.737Z,19.00
2018-07-26T02:01:17.176Z,18.90
2018-07-26T02:03:45.644Z,18.80
2018-07-26T02:06:14.075Z,18.80
2018-07-26T02:08:42.523Z,18.80
2018-07-26T02:11:10.989Z,18.80
2018-07-26T02:13:39.442Z,18.80
2018-07-26T02:16:07.896Z,18.80
2018-07-26T02:18:36.355Z,18.80
2018-07-26T02:21:04.803Z,18.80
2018-07-26T02:23:33.248Z,18.90
2018-07-26T02:26:01.712Z,18.90
2018-07-26T02:28:30.155Z,18.80
2018-07-26T02:30:58.602Z,18.80
2018-07-26T02:33:27.086Z,18.80
2018-07-26T02:35:55.507Z,18.80
2018-07-26T02:38:23.971Z,18.90
2018-07-26T02:40:52.393Z,18.90
2018-07-26T02:43:20.843Z,18.80
2018-07-26T02:45:49.265Z,18.60
2018-07-26T02:48:17.733Z,18.60
2018-07-26T02:50:46.179Z,18.50
2018-07-26T02:53:14.652Z,18.40
2018-07-26T02:55:43.079Z,18.20
2018-07-26T02:58:11.541Z,18.00
2018-07-26T03:00:39.995Z,17.90
2018-07-26T03:03:08.436Z,17.80
2018-07-26T03:05:36.875Z,17.90
2018-07-26T03:08:05.439Z,17.90
2018-07-26T03:10:33.903Z,17.90
2018-07-26T03:13:02.344Z,18.00
2018-07-26T03:15:30.840Z,18.00
2018-07-26T03:17:59.246Z,18.00
2018-07-26T03:20:27.724Z,18.00
2018-07-26T03:22:56.144Z,18.00
2018-07-26T03:25:24.588Z,18.00
2018-07-26T03:27:53.016Z,18.00
2018-07-26T03:30:21.798Z,18.00
2018-07-26T03:32:50.292Z,18.00
2018-07-26T03:35:18.711Z,18.10
2018-07-26T03:37:47.100Z,18.10
2018-07-26T03:40:15.527Z,18.00
2018-07-26T03:42:43.911Z,18.00
2018-07-26T03:45:12.355Z,18.00
2018-07-26T03:47:40.732Z,18.00
2018-07-26T03:50:09.167Z,18.00
2018-07-26T03:52:37.642Z,17.90
2018-07-26T03:55:06.011Z,17.90
2018-07-26T03:57:34.434Z,17.80
2018-07-26T04:00:02.836Z,17.80
2018-07-26T04:02:31.235Z,17.90
2018-07-26T04:04:59.612Z,17.90
2018-07-26T04:07:28.039Z,18.00
2018-07-26T04:09:56.430Z,18.10
2018-07-26T04:12:24.859Z,18.20
2018-07-26T04:14:53.240Z,18.40
2018-07-26T04:17:21.637Z,18.60
2018-07-26T04:19:50.020Z,18.80
2018-07-26T04:22:18.428Z,19.00
2018-07-26T04:24:46.798Z,19.20
2018-07-26T04:27:15.201Z,19.50
2018-07-26T04:29:43.604Z,19.60
2018-07-26T04:32:12.039Z,19.80
2018-07-26T04:34:43.532Z,19.90
2018-07-26T04:37:11.939Z,20.10
2018-07-26T04:39:40.318Z,20.20
2018-07-26T04:42:08.715Z,20.40
2018-07-26T04:44:37.112Z,20.60
2018-07-26T04:47:05.547Z,20.90
2018-07-26T04:49:33.919Z,21.20
2018-07-26T04:52:02.319Z,21.40
2018-07-26T04:54:30.804Z,21.60
2018-07-26T04:56:59.147Z,22.00
2018-07-26T04:59:27.556Z,22.30
2018-07-26T05:01:55.954Z,22.60
2018-07-26T05:04:24.363Z,22.80
2018-07-26T05:06:52.744Z,23.10
2018-07-26T05:09:21.151Z,23.30
2018-07-26T05:11:49.581Z,23.60
2018-07-26T05:14:17.972Z,24.00
2018-07-26T05:16:46.371Z,24.50
2018-07-26T05:19:14.773Z,25.00
2018-07-26T05:21:43.163Z,25.30
2018-07-26T05:24:11.571Z,25.60
2018-07-26T05:26:40.203Z,25.80
2018-07-26T05:29:08.627Z,26.30
2018-07-26T05:31:37.008Z,26.90
2018-07-26T05:34:05.659Z,27.50
2018-07-26T05:36:34.071Z,28.20
2018-07-26T05:39:02.482Z,28.80
2018-07-26T05:41:30.873Z,29.50
2018-07-26T05:43:59.275Z,30.30
2018-07-26T05:46:27.706Z,30.90
2018-07-26T05:48:56.234Z,31.40
2018-07-26T05:51:24.649Z,31.90
2018-07-26T05:53:53.055Z,32.30
2018-07-26T05:56:21.454Z,33.00
2018-07-26T05:58:49.851Z,33.60
2018-07-26T06:01:18.265Z,34.20
2018-07-26T06:03:46.824Z,34.70
2018-07-26T06:06:15.246Z,35.20
2018-07-26T06:08:43.634Z,35.50
2018-07-26T06:11:12.070Z,35.70
2018-07-26T06:13:40.451Z,35.90
2018-07-26T06:18:36.962Z,36.30
2018-07-26T06:21:05.385Z,36.60
2018-07-26T06:26:01.927Z,37.20
2018-07-26T06:28:30.321Z,37.60
2018-07-26T06:33:26.871Z,37.80
2018-07-26T06:35:55.254Z,37.70
2018-07-26T06:38:23.633Z,37.90
2018-07-26T06:40:52.043Z,37.80
2018-07-26T06:43:20.424Z,37.80
2018-07-26T06:45:48.818Z,37.60
2018-07-26T06:48:17.223Z,37.80
2018-07-26T06:50:45.654Z,37.80
2018-07-26T06:55:42.176Z,37.90
2018-07-26T06:58:10.563Z,38.10
2018-07-26T07:00:38.992Z,37.80
2018-07-26T07:03:07.417Z,37.40
2018-07-26T07:05:35.819Z,37.00
2018-07-26T07:10:32.379Z,36.90
2018-07-26T07:13:00.759Z,36.70
2018-07-26T07:15:29.160Z,36.90
2018-07-26T07:17:58.587Z,36.90
2018-07-26T07:20:27.026Z,36.60
2018-07-26T07:22:55.459Z,36.70
2018-07-26T07:25:23.845Z,36.60
2018-07-26T07:27:52.489Z,36.30
2018-07-26T07:30:20.844Z,36.10
2018-07-26T07:32:49.258Z,36.10
2018-07-26T07:35:17.705Z,36.40
2018-07-26T07:37:46.111Z,36.50
2018-07-26T07:40:14.544Z,36.50
2018-07-26T07:42:42.952Z,36.50
2018-07-26T07:45:11.325Z,36.50
2018-07-26T07:47:39.774Z,36.40
2018-07-26T07:50:08.233Z,36.30
2018-07-26T07:52:36.888Z,36.20
2018-07-26T07:55:05.664Z,36.10
2018-07-26T07:57:34.123Z,36.10
2018-07-26T08:00:02.522Z,36.10
2018-07-26T08:02:30.920Z,36.10
2018-07-26T08:04:59.307Z,36.10
2018-07-26T08:07:27.733Z,36.40
2018-07-26T08:09:56.143Z,36.50
2018-07-26T08:12:24.540Z,36.60
2018-07-26T08:14:52.943Z,36.80
2018-07-26T08:17:21.392Z,36.50
2018-07-26T08:19:49.770Z,36.10
2018-07-26T08:22:18.218Z,35.80
2018-07-26T08:24:46.705Z,35.90
2018-07-26T08:27:15.234Z,36.00
2018-07-26T08:29:43.616Z,36.30
2018-07-26T08:32:12.019Z,36.60
2018-07-26T08:34:40.392Z,36.80
2018-07-26T08:37:08.841Z,36.70
2018-07-26T08:39:37.264Z,36.60
2018-07-26T08:42:05.713Z,36.90
2018-07-26T08:44:34.088Z,36.70
2018-07-26T08:47:02.508Z,36.50
2018-07-26T08:49:30.879Z,36.20
2018-07-26T08:51:59.326Z,36.50
2018-07-26T08:54:27.720Z,36.90
2018-07-26T08:56:56.119Z,37.00
2018-07-26T08:59:24.517Z,36.90
2018-07-26T09:01:52.919Z,36.90
2018-07-26T09:04:21.330Z,36.60
2018-07-26T09:06:49.736Z,36.60
2018-07-26T09:09:18.156Z,36.90
2018-07-26T09:11:46.581Z,36.80
2018-07-26T09:14:15.055Z,36.50
2018-07-26T09:16:43.475Z,36.00
2018-07-26T09:19:11.892Z,36.00
2018-07-26T09:21:40.274Z,36.00
2018-07-26T09:24:08.718Z,36.20
2018-07-26T09:26:37.172Z,36.40
2018-07-26T09:29:05.572Z,36.60
2018-07-26T09:31:34.007Z,37.10
2018-07-26T09:34:02.408Z,37.60
2018-07-26T09:36:30.806Z,37.70
2018-07-26T09:38:59.205Z,37.70
2018-07-26T09:41:27.623Z,37.50
2018-07-26T09:43:56.013Z,37.30
2018-07-26T09:46:24.400Z,37.40
2018-07-26T09:48:52.800Z,37.70
2018-07-26T09:51:21.182Z,37.70
2018-07-26T09:53:49.570Z,37.60
2018-07-26T09:56:17.954Z,37.40
2018-07-26T09:58:46.363Z,37.30
2018-07-26T10:01:20.105Z,37.40
2018-07-26T10:03:48.499Z,37.80
2018-07-26T10:06:16.897Z,38.30
2018-07-26T10:08:45.306Z,38.70
2018-07-26T10:11:13.711Z,39.00
2018-07-26T10:13:42.114Z,38.80
2018-07-26T10:16:10.535Z,38.90
2018-07-26T10:18:38.970Z,38.90
2018-07-26T10:21:07.558Z,38.60
2018-07-26T10:23:36.012Z,38.80
2018-07-26T10:26:04.439Z,38.90
2018-07-26T10:28:32.885Z,38.80
2018-07-26T10:31:01.369Z,38.70
2018-07-26T10:33:29.767Z,38.40
2018-07-26T10:35:58.144Z,38.00
2018-07-26T10:38:26.559Z,37.50
2018-07-26T10:40:54.927Z,37.40
2018-07-26T10:45:51.440Z,37.50
2018-07-26T10:48:19.844Z,37.80
2018-07-26T10:50:48.227Z,38.10
2018-07-26T10:53:16.658Z,38.40
2018-07-26T10:55:45.041Z,38.80
2018-07-26T10:58:13.455Z,39.10
2018-07-26T11:00:41.836Z,38.90
2018-07-26T11:03:10.266Z,38.30
2018-07-26T11:05:38.669Z,38.00
2018-07-26T11:08:07.068Z,37.80
2018-07-26T11:10:35.467Z,37.80
2018-07-26T11:13:03.875Z,38.10
2018-07-26T11:15:34.596Z,38.10
2018-07-26T11:18:03.303Z,37.70
2018-07-26T11:20:31.716Z,37.60
2018-07-26T11:23:00.364Z,37.50
2018-07-26T11:25:28.801Z,37.60
2018-07-26T11:27:57.216Z,37.90
2018-07-26T11:30:25.649Z,38.40
2018-07-26T11:32:54.072Z,38.40
2018-07-26T11:35:22.493Z,38.20
2018-07-26T11:37:50.916Z,38.40
2018-07-26T11:40:19.328Z,38.60
2018-07-26T11:42:47.742Z,38.50
2018-07-26T11:45:16.187Z,38.40
2018-07-26T11:50:13.130Z,38.00
2018-07-26T11:52:41.537Z,38.40
2018-07-26T11:55:09.971Z,38.70
2018-07-26T11:57:38.437Z,38.90
2018-07-26T12:00:08.170Z,39.00
2018-07-26T12:02:36.648Z,39.10
2018-07-26T12:05:05.212Z,38.90
2018-07-26T12:07:33.594Z,38.70
2018-07-26T12:10:02.016Z,38.20
2018-07-26T12:12:30.411Z,37.90
2018-07-26T12:14:58.815Z,37.90
2018-07-26T12:17:27.193Z,38.00
2018-07-26T12:19:55.592Z,37.90
2018-07-26T12:22:23.971Z,38.10
2018-07-26T12:24:52.461Z,38.20
2018-07-26T12:27:20.845Z,38.10
2018-07-26T12:29:49.247Z,37.90
2018-07-26T12:32:17.634Z,37.90
2018-07-26T12:34:46.086Z,37.80
2018-07-26T12:37:14.471Z,37.90
2018-07-26T12:39:42.903Z,37.60
2018-07-26T12:44:39.429Z,36.90
2018-07-26T12:47:07.837Z,36.70
2018-07-26T12:49:36.290Z,36.30
2018-07-26T12:52:04.697Z,36.30
2018-07-26T12:57:01.243Z,37.10
2018-07-26T12:59:29.679Z,37.30
2018-07-26T13:01:58.095Z,37.40
2018-07-26T13:04:26.493Z,37.30
2018-07-26T13:06:54.872Z,37.00
2018-07-26T13:09:23.286Z,36.50
2018-07-26T13:11:51.667Z,36.20
2018-07-26T13:14:20.072Z,36.30
2018-07-26T13:16:48.451Z,36.50
2018-07-26T13:19:16.891Z,36.80
2018-07-26T13:21:45.320Z,36.90
2018-07-26T13:24:13.723Z,36.70
2018-07-26T13:26:42.099Z,36.50
2018-07-26T13:29:10.496Z,36.70
2018-07-26T13:31:38.921Z,36.90
2018-07-26T13:34:07.351Z,37.20
2018-07-26T13:36:35.728Z,37.10
2018-07-26T13:39:06.960Z,37.10
2018-07-26T13:41:35.351Z,36.80
2018-07-26T13:44:03.767Z,36.80
2018-07-26T13:49:00.503Z,37.00
2018-07-26T13:51:29.103Z,37.20
2018-07-26T13:53:57.474Z,36.80
2018-07-26T13:56:25.947Z,36.10
2018-07-26T13:58:54.351Z,35.30
2018-07-26T14:01:22.816Z,34.80
2018-07-26T14:03:51.222Z,34.60
2018-07-26T14:06:19.644Z,34.30
2018-07-26T14:08:48.040Z,34.40
2018-07-26T14:11:16.608Z,34.30
2018-07-26T14:13:45.009Z,34.40
2018-07-26T14:16:13.421Z,34.70
2018-07-26T14:18:41.795Z,34.80
2018-07-26T14:21:10.259Z,34.90
2018-07-26T14:23:39.736Z,35.20
2018-07-26T14:26:10.120Z,35.30
2018-07-26T14:28:38.683Z,35.40
2018-07-26T14:31:07.492Z,35.50
2018-07-26T14:33:35.882Z,35.50
2018-07-26T14:36:04.304Z,35.40
2018-07-26T14:38:32.687Z,35.40
2018-07-26T14:41:01.116Z,35.30
2018-07-26T14:43:29.570Z,34.90
2018-07-26T14:45:57.964Z,34.70
2018-07-26T14:51:11.936Z,34.70
2018-07-26T14:56:27.266Z,35.00
2018-07-26T14:58:55.649Z,35.20
2018-07-26T15:01:24.371Z,35.10
2018-07-26T15:03:52.769Z,35.10
2018-07-26T15:06:21.199Z,35.00
2018-07-26T15:08:49.565Z,34.80
2018-07-26T15:11:18.371Z,34.90
2018-07-26T15:13:46.775Z,35.00
2018-07-26T15:16:15.175Z,35.20
2018-07-26T15:21:11.988Z,35.00
2018-07-26T15:23:40.519Z,34.80
2018-07-26T15:26:08.956Z,34.60
2018-07-26T15:28:37.384Z,34.50
2018-07-26T15:31:05.812Z,34.50
2018-07-26T15:33:34.204Z,34.60
2018-07-26T15:36:02.625Z,34.70
2018-07-26T15:38:31.010Z,34.80
2018-07-26T15:40:59.425Z,34.90
2018-07-26T15:43:27.819Z,34.80
2018-07-26T15:45:56.245Z,34.60
2018-07-26T15:48:24.638Z,34.50
2018-07-26T15:50:53.044Z,34.20
2018-07-26T15:53:21.414Z,34.00
2018-07-26T15:55:49.814Z,34.00
2018-07-26T15:58:18.201Z,33.90
2018-07-26T16:00:46.651Z,33.90
2018-07-26T16:03:15.152Z,33.90
2018-07-26T16:05:43.600Z,33.80
2018-07-26T16:08:12.004Z,33.80
2018-07-26T16:10:41.387Z,33.70
2018-07-26T16:13:09.775Z,33.60
2018-07-26T16:15:38.218Z,33.60
2018-07-26T16:18:06.704Z,33.50
2018-07-26T16:20:35.079Z,33.40
2018-07-26T16:23:03.550Z,33.30
2018-07-26T16:25:32.046Z,33.30
2018-07-26T16:28:00.491Z,33.20
2018-07-26T16:30:28.897Z,33.10
2018-07-26T16:32:57.308Z,33.00
2018-07-26T16:35:25.693Z,33.00
2018-07-26T16:37:54.083Z,32.90
2018-07-26T16:40:22.461Z,32.90
2018-07-26T16:42:50.883Z,32.90
2018-07-26T16:45:19.287Z,32.90
2018-07-26T16:47:47.699Z,32.80
2018-07-26T16:50:16.760Z,32.70
2018-07-26T16:52:45.178Z,32.70
2018-07-26T16:55:13.584Z,32.60
2018-07-26T16:57:41.979Z,32.50
2018-07-26T17:00:11.020Z,32.50
2018-07-26T17:02:39.474Z,32.50
2018-07-26T17:05:08.296Z,32.40
2018-07-26T17:07:36.755Z,32.40
2018-07-26T17:10:06.341Z,32.30
2018-07-26T17:12:34.792Z,32.10
2018-07-26T17:15:03.228Z,32.00
2018-07-26T17:17:31.635Z,31.90
2018-07-26T17:20:00.034Z,31.80
2018-07-26T17:22:28.467Z,31.80
2018-07-26T17:24:56.855Z,31.80
2018-07-26T17:27:25.268Z,31.70
2018-07-26T17:29:53.652Z,31.60
2018-07-26T17:32:22.116Z,31.60
2018-07-26T17:37:18.780Z,31.40
2018-07-26T17:42:15.436Z,31.30
2018-07-26T17:44:43.822Z,31.20
2018-07-26T17:49:40.663Z,31.10
2018-07-26T17:52:09.083Z,31.00
2018-07-26T17:54:37.591Z,30.90
2018-07-26T17:57:06.079Z,30.80
2018-07-26T17:59:34.459Z,30.80
2018-07-26T18:02:02.875Z,30.70
2018-07-26T18:04:31.258Z,30.50
2018-07-26T18:06:59.691Z,30.50
2018-07-26T18:09:28.105Z,30.40
2018-07-26T18:11:56.504Z,30.30
2018-07-26T18:16:52.987Z,30.00
2018-07-26T18:19:21.376Z,29.90
2018-07-26T18:21:49.779Z,29.70
2018-07-26T18:24:18.155Z,29.50
2018-07-26T18:26:46.569Z,29.30
2018-07-26T18:29:15.076Z,29.20
2018-07-26T18:31:43.545Z,29.10
2018-07-26T18:34:11.908Z,29.00
2018-07-26T18:36:40.295Z,28.80
2018-07-26T18:39:10.936Z,28.60
2018-07-26T18:41:39.501Z,28.30
2018-07-26T18:44:08.565Z,28.10
2018-07-26T18:46:37.591Z,28.00
2018-07-26T18:49:06.750Z,27.90
2018-07-26T18:51:35.154Z,27.80
2018-07-26T18:54:03.601Z,27.60
2018-07-26T18:56:32.021Z,27.50
2018-07-26T18:59:00.419Z,27.30
2018-07-26T19:01:28.831Z,27.20
2018-07-26T19:03:57.249Z,27.00
2018-07-26T19:06:25.666Z,26.80
2018-07-26T19:08:54.095Z,26.50
2018-07-26T19:11:22.498Z,26.30
2018-07-26T19:13:50.906Z,26.20
2018-07-26T19:16:19.292Z,26.00
2018-07-26T19:18:47.688Z,25.90
2018-07-26T19:21:16.080Z,25.70
2018-07-26T19:23:44.508Z,25.60
2018-07-26T19:26:12.887Z,25.50
2018-07-26T19:28:41.302Z,25.30
2018-07-26T19:31:09.679Z,25.10
2018-07-26T19:33:38.099Z,25.10
2018-07-26T19:36:06.881Z,25.00
2018-07-26T19:38:35.260Z,24.90
2018-07-26T19:41:03.706Z,24.90
2018-07-26T19:43:32.132Z,24.80
2018-07-26T19:46:00.522Z,24.70
2018-07-26T19:48:28.911Z,24.60
2018-07-26T19:50:57.323Z,24.50
2018-07-26T19:53:25.739Z,24.40
2018-07-26T19:55:54.111Z,24.30
2018-07-26T19:58:22.650Z,24.10
2018-07-26T20:00:51.060Z,23.90
2018-07-26T20:03:19.455Z,23.60
2018-07-26T20:05:47.853Z,23.50
2018-07-26T20:08:16.587Z,23.50
2018-07-26T20:10:45.170Z,23.40
2018-07-26T20:13:13.571Z,23.40
2018-07-26T20:15:41.950Z,23.40
2018-07-26T20:18:10.355Z,23.30
2018-07-26T20:20:38.718Z,23.30
2018-07-26T20:23:07.166Z,23.20
2018-07-26T20:25:39.780Z,23.10
2018-07-26T20:28:08.625Z,23.00
2018-07-26T20:30:36.988Z,22.90
2018-07-26T20:33:05.401Z,22.90
2018-07-26T20:35:33.790Z,22.60
2018-07-26T20:38:02.205Z,22.30
2018-07-26T20:40:30.643Z,22.10
2018-07-26T20:42:59.022Z,22.00
2018-07-26T20:45:27.447Z,21.90
2018-07-26T20:47:55.820Z,21.80
2018-07-26T20:50:24.260Z,21.70
2018-07-26T20:52:52.630Z,21.70
2018-07-26T20:55:21.014Z,21.70
2018-07-26T20:57:49.404Z,21.60
2018-07-26T21:00:17.835Z,21.40
2018-07-26T21:02:46.309Z,21.20
2018-07-26T21:05:14.781Z,21.10
2018-07-26T21:10:11.365Z,21.20
2018-07-26T21:12:39.740Z,21.20
2018-07-26T21:15:09.212Z,21.20
2018-07-26T21:17:37.612Z,21.10
2018-07-26T21:20:06.151Z,21.00
2018-07-26T21:22:34.743Z,21.00
2018-07-26T21:25:03.148Z,21.10
2018-07-26T21:27:31.527Z,21.20
2018-07-26T21:29:59.924Z,21.20
2018-07-26T21:32:28.309Z,21.30
2018-07-26T21:34:56.700Z,21.40
2018-07-26T21:37:25.076Z,21.40
2018-07-26T21:39:53.696Z,21.50
2018-07-26T21:42:22.076Z,21.50
2018-07-26T21:44:50.464Z,21.60
2018-07-26T21:47:18.847Z,21.60
2018-07-26T21:49:47.259Z,21.60
2018-07-26T21:52:15.663Z,21.60
2018-07-26T21:54:44.060Z,21.60
2018-07-26T21:57:12.441Z,21.60
2018-07-26T21:59:40.860Z,21.60
2018-07-26T22:04:37.400Z,21.50
2018-07-26T22:07:05.784Z,21.40
2018-07-26T22:09:34.223Z,21.40
2018-07-26T22:12:02.628Z,21.30
2018-07-26T22:14:31.019Z,21.30
2018-07-26T22:16:59.432Z,21.30
2018-07-26T22:19:27.831Z,21.30
2018-07-26T22:21:56.208Z,21.30
2018-07-26T22:24:24.600Z,21.20
2018-07-26T22:26:53.531Z,21.10
2018-07-26T22:29:21.932Z,21.10
2018-07-26T22:31:50.335Z,21.00
2018-07-26T22:34:18.733Z,20.90
2018-07-26T22:36:47.127Z,20.90
2018-07-26T22:39:15.537Z,20.80
2018-07-26T22:41:43.910Z,20.70
2018-07-26T22:44:12.319Z,20.70
2018-07-26T22:46:40.694Z,20.70
2018-07-26T22:49:09.072Z,20.60
2018-07-26T22:51:37.506Z,20.60
2018-07-26T22:54:05.939Z,20.50
2018-07-26T22:56:34.450Z,20.50
2018-07-26T22:59:03.079Z,20.50
2018-07-26T23:01:31.492Z,20.50
2018-07-26T23:03:59.887Z,20.50
2018-07-26T23:06:28.654Z,20.40
2018-07-26T23:08:57.042Z,20.30
2018-07-26T23:11:25.455Z,20.20
2018-07-26T23:13:54.668Z,20.00
2018-07-26T23:16:23.068Z,20.00
2018-07-26T23:18:51.444Z,19.80
2018-07-26T23:21:19.854Z,19.70
2018-07-26T23:23:48.223Z,19.60
2018-07-26T23:26:16.629Z,19.60
2018-07-26T23:28:45.013Z,19.70
2018-07-26T23:31:13.400Z,19.70
2018-07-26T23:33:41.783Z,19.70
2018-07-26T23:36:10.177Z,19.60
2018-07-26T23:38:38.550Z,19.60
2018-07-26T23:41:07.059Z,19.60
2018-07-26T23:43:35.439Z,19.60
2018-07-26T23:46:10.335Z,19.70
2018-07-26T23:48:38.709Z,19.70
2018-07-26T23:51:07.324Z,19.70
2018-07-26T23:53:35.698Z,19.80
2018-07-26T23:56:04.127Z,19.80
2018-07-26T23:58:32.497Z,19.80
